モントリオール/トルドー の空港の天気 - METARとTAF

モントリオール・ピエール・エリオット・トルドー国際空港 ( CYUL / YUL ) - カナダ ケベック州モントリオール
飛行場実況気象(Metar)
観測時間01/19 06:00 EST (01/19 11:00 UTC)
風向・風速北北東 5m/s
視程10km以上
天気現象
少しの雲 雲底高度 7320m
気温-21℃
湿度59%
気圧1031hPa
METARCYUL 191100Z 03009KT 15SM FEW240 M21/M27 A3043 RMK CI2 SLP310
過去の天気等 Google飛行場航空写真 Wunderground天気予報

過去48時間のMETAR

飛行場予報(TAF)
発表時間: 1/19 03:38 EST (1/19 08:38 UTC)
予報対象時間: 19日4時 EST ~ 20日1時 EST
風向・風速北 5m/s
視程10km以上
少しの雲 雲底高度 1830m
全天の4割程度の雲 雲底高度 2740m
19日6時 EST から
風向・風速北 5m/s
視程10km以上
全天を覆う雲 雲底高度 4880m
19日10時 EST から
風向・風速北東 5m/s
視程10km以上
全天を覆う雲 雲底高度 3660m
19日16時 EST から
風向・風速北東 5m/s
視程10km以上
天気現象弱い雪
少しの雲 雲底高度 610m
全天を覆う雲 雲底高度 2440m
19日18時 EST ~ 19日20時 EST に徐々に
風向・風速北東 6m/s 瞬間風速 11m/s
20日0時 EST から
風向・風速北東 8m/s 瞬間風速 13m/s
視程1610m
天気現象弱い雪 高い地吹雪
全天を覆う雲 鉛直視程 300m
TAF CYUL 190838Z 1909/2006 36010KT P6SM FEW060 SCT090
FM191100 01010KT P6SM OVC160
FM191500 04010KT P6SM OVC120
FM192100 04010KT 21/2SM -SN FEW020 OVC080
BECMG 1923/2001 04012G22KT
FM200500 04015G25KT 1SM -SN BLSN VV010 RMK NXT FCST BY 191200Z